Home > Products > Valid Products > MTR

000
SAZS31 NSTU 211852
MTRPPG
METAR NSTU 211850Z 12014KT 12SM SCT020 BKN100 BKN250 28/24 A2982 RMK
SLP100 T02840236=




000
SAZS31 NSTU 211756
MTRPPG
METAR NSTU 211752Z 13013KT 12SM SCT022 OVC200 27/23 A2981 RMK SLP097
 8/109 T02720234 10272 20269 51008=




000
SAZS31 NSTU 211752
MTRPPG
METAR NSTU 211653Z 14011KT 12SM FEW022 OVC200 27/23 A2980 RMK SLP090
 T02690230=




000
SAZS31 NSTU 211556
MTRPPG
METAR NSTU 211553Z 11011KT 11SM FEW024 SCT110 27/23 A2979 RMK SLP088
 T02690227=




000
SAZS31 NSTU 211556
MTRPPG
METAR NSTU 211553Z 11011KT 11SM FEW024 SCT110 27/23 A2979 RMK SLP088
 T02690227=




000
SAZS31 NSTU 211453
MTRPPG
METAR NSTU 211450Z 12011KT 10SM SCT024 27/23 A2979 RMK SLP088 8/100
T02710232 56012=




000
SAZS31 NSTU 211356
MTRPPG
METAR NSTU 211354Z 11011KT 10SM SCT024 27/23 A2979 RMK SLP088
T02710233=




000
SAZS31 NSTU 211252
MTRPPG
METAR NSTU 211250Z 11009KT 10SM FEW024 SCT045 27/24 A2981 RMK SLP095
 T02710235=




000
SAZS31 NSTU 211217
MTRPPG
METAR NSTU 211150Z 10007KT 10SM FEW024 SCT045 27/24 A2982 RMK SLP100
 8/800 T02700235 10280 20270 56022=




000
SAZS31 NSTU 211054
MTRPPG
METAR NSTU 211050Z 09010KT 10SM FEW024 SCT045 27/23 A2986 RMK SLP112
 T02720232 403100269=




000
SAZS31 NSTU 210951
MTRPPG
METAR NSTU 210950Z 09012KT 10SM SCT024 SCT045 27/24 A2988 RMK SLP120
 T02740235=




000
SAZS31 NSTU 210853
MTRPPG
METAR NSTU 210850Z 09010KT 10SM SCT024 BKN045 27/24 A2989 RMK SLP122
 8/800 T02740237 52015=




000
SAZS31 NSTU 210755
MTRPPG
METAR NSTU 210753Z 10014KT 10SM SCT023 BKN045 OVC090 28/24 A2988 RMK
 SLP119 T02750236=




000
SAZS31 NSTU 210654
MTRPPG
METAR NSTU 210652Z 09012KT 10SM SCT023 BKN045 OVC090 28/24 A2987 RMK
 SLP115 T02780240=




000
SAZS31 NSTU 210555
MTRPPG
METAR NSTU 210550Z 10011KT 11SM SCT023 BKN045 BKN090 28/24 A2984 RMK
 SLP107 8/870 T02800236 10310 20280 52014=




000
SAZS31 NSTU 210455
MTRPPG
METAR NSTU 210453Z 09009KT 12SM FEW024 BKN050 OVC100 28/23 A2982 RMK
 SLP100 T02830234=




000
SAZS31 NSTU 210359
MTRPPG
METAR NSTU 210357Z 09011KT 12SM FEW024 SCT045 OVC100 29/23 A2980 RMK
 SLP093 T02880232=




000
SAZS31 NSTU 210256
MTRPPG
METAR NSTU 210250Z 09010KT 12SM SCT023 BKN100 OVC250 29/24 A2980 RMK
 SLP093 8/171 T02910236 56008=




000
SAZS31 NSTU 210150
MTRPPG
METAR NSTU 210150Z 10009KT 12SM FEW020 SCT100 OVC250 29/24 A2980 RMK
SLP091 T02940239=




000
SAZS31 NSTU 210150
MTRPPG
METAR NSTU 210050Z 09012KT 12SM FEW020 SCT100 OVC250 29/24 A2981 RMK
SLP097 T02940236=




000
SAZS31 NSTU 202352
MTRPPG
METAR NSTU 202350Z 08014KT 12SM FEW017 FEW040 SCT110 BKN250 31/25
A2983 RMK SLP102 8/871 T03100245 10310 20275 56017=




000
SAZS31 NSTU 202250
MTRPPG
METAR NSTU 202250Z 09012KT 12SM FEW018 FEW040 SCT110 BKN250 31/25
A2985 RMK SLP108 T03100245=




000
SAZS31 NSTU 202151
MTRPPG
METAR NSTU 202150Z 09015KT 12SM FEW019 FEW040 SCT110 BKN250 31/24
A2986 RMK SLP112 T03060238=




000
SAZS31 NSTU 202055
MTRPPG
METAR NSTU 202051Z 09015KT 12SM SCT018 SCT040 BKN110 BKN250 30/24
A2988 RMK SLP119 8/871 T03010238 52005=




000
SAZS31 NSTU 201952
MTRPPG
METAR NSTU 201950Z 09015KT 12SM SCT017 SCT040 BKN110 BKN250 30/24
A2989 RMK SLP122 T02970243=




000
SAZS31 NSTU 201852
MTRPPG
METAR NSTU 201850Z 09013KT 12SM SCT018 BKN040 BKN110 OVC250 28/24
A2988 RMK SLP120 T02800238=




000
SAZS31 NSTU 201752
MTRPPG
METAR NSTU 201750Z 09015KT 11SM SCT017 BKN040 OVC110 28/24 A2986 RMK
SLP113 8/47/ T02750238 10278 20269 52020=




000
SAZS31 NSTU 201655
MTRPPG
METAR NSTU 201652Z 09013KT 11SM FEW025 FEW045 OVC110 27/23 A2983 RMK
 SLP103 T02720230=




000
SAZS31 NSTU 201601
MTRPPG
METAR NSTU 201450Z 10015KT 10SM SCT023 BKN110 27/23 A2980 RMK SLP093
8/170 T02780228 56017=




000
SAZS31 NSTU 201556
MTRPPG
METAR NSTU 201551Z 10015KT 10SM SCT023 BKN110 27/23 A2981 RMK SLP095
 T02710229=




000
SAZS31 NSTU 201355
MTRPPG
METAR NSTU 201351Z 11016KT 10SM SCT023 BKN110 27/23 A2980 RMK SLP093
 T02690228=




000
SAZS31 NSTU 201354
MTRPPG
METAR NSTU 201252Z 12012KT 10SM SCT023 BKN110 27/23 A2983 RMK SLP103
 T02710231=




000
SAZS31 NSTU 201158
MTRPPG
METAR NSTU 201150Z 12011KT 10SM SCT023 BKN110 27/23 A2985 RMK SLP110
 60002 70010 8/120 T02710233 10275 20271 56014=




000
SAZS31 NSTU 201143
MTRPPG
METAR NSTU 201053Z 14012KT 10SM SCT023 27/24 A2987 RMK SLP117
T02740235 403100268=




000
SAZS31 NSTU 200956
MTRPPG
METAR NSTU 200953Z 14012KT 10SM SCT023 BKN040 OVC090 28/24 A2989 RMK
 SLP122 T02750238=




000
SAZS31 NSTU 200956
MTRPPG
METAR NSTU 200953Z 14012KT 10SM SCT023 BKN040 OVC090 28/24 A2989 RMK
 SLP122 T02750238=




000
SAZS31 NSTU 200857
MTRPPG
METAR NSTU 200850Z 13010KT 10SM SCT021 OVC040 27/24 A2989 RMK RAE40
SLP124 60002 8/8// T02740241 52012=




000
SAZS31 NSTU 200801
MTRPPG
METAR NSTU 200757Z 13012KT 9SM -RA SCT016TCU OVC040 27/24 A2989 RMK
TCU ALQDS SLP122 T02720243=




000
SAZS31 NSTU 200700
MTRPPG
METAR NSTU 200655Z 12011KT 9SM -RA BKN015TCU OVC035 27/25 A2988 RMK
TCU ALQDS SLP119 T02710248=




000
SAZS31 NSTU 200555
MTRPPG
METAR NSTU 200550Z 12012KT 8SM -SHRA SCT017TCU OVC035 27/25 A2986
RMK TCU ALQDS SLP112 60007 8/8// T02720248 10287 20272 52019=




000
SAZS31 NSTU 200457
MTRPPG
METAR NSTU 200454Z 09012KT 9SM -SHRA BKN015TCU OVC035 27/25 A2985
RMK TCU ALQDS SLP108 T02720252=




000
SAZS31 NSTU 200352
MTRPPG
METAR NSTU 200350Z 10014KT 11SM -SHRA BKN017TCU OVC035 28/25 A2982
RMK TCU ALQDS SLP098 T02770249=




000
SAZS31 NSTU 200352
MTRPPG
METAR NSTU 200350Z 10014KT 11SM -SHRA BKN017TCU OVC035 28/25 A2982
RMK TCU ALQDS SLP098 T02770249=




000
SAZS31 NSTU 200255
MTRPPG
METAR NSTU 200250Z 11015G21KT 11SM -SHRA BKN016TCU OVC035 28/25
A2980 RMK TCU ALQDS SLP093 60000 8/8// T02790249 56007=




000
SAZS31 NSTU 200255
MTRPPG
METAR NSTU 200250Z 11015G21KT 11SM -SHRA BKN016TCU OVC035 28/25
A2980 RMK TCU ALQDS SLP093 60000 8/8// T02790249 56007=




000
SAZS31 NSTU 200154
MTRPPG
METAR NSTU 200150Z 11015KT 12SM -SHRA SCT016TCU BKN035 OVC090 28/25
A2980 RMK TCU ALQDS SLP093 T02820251=




000
SAZS31 NSTU 200054
MTRPPG
METAR NSTU 200050Z 11014KT 12SM -SHRA SCT012TCU BKN035 BKN100 OVC190
29/25 A2981 RMK SHRAB10 TCU NW-N-NE SLP095 T02850252




000
SAZS31 NSTU 200002
MTRPPG
METAR NSTU 192350Z 11016KT 12SM SCT014TCU BKN035 BKN080 OVC200 29/26
A2982 RMK TCU NW-N-NE SLP100 8/822 T02870255 10310 20271 57012




000
SAZS31 NSTU 192253
MTRPPG
METAR NSTU 192250Z 09013KT 12SM SCT022 BKN040 OVC100 31/26 A2984 RMK
SLP107 T03100258




000
SAZS31 NSTU 192153
MTRPPG
METAR NSTU 192150Z 08016KT 12SM SCT019 BKN040 BKN100 OVC250 30/25
A2986 RMK SLP112 T02960253




000
SAZS31 NSTU 192054
MTRPPG
METAR NSTU 192050Z 08008KT 12SM FEW020 SCT150 BKN300 30/26 A2986 RMK
SLP112 60001 8/216 T03010255 52005




000
SAZS31 NSTU 191954
MTRPPG
METAR NSTU 191950Z 08013KT 12SM FEW020 SCT150 SCT300 30/25 A2986 RMK
SLP113 T02970253




000
SAZS31 NSTU 191853
MTRPPG
METAR NSTU 191850Z 08012KT 12SM FEW022 FEW040 SCT100 SCT250 29/25
A2985 RMK SLP110 T02880252




000
SAZS31 NSTU 191758
MTRPPG
METAR NSTU 191752Z 05009KT 12SM VCSH SCT016TCU BKN300 27/25 A2984
RMK SHRAB30E50 VCSH W TCU S AND W-NW SLP107 60001 8/202 T02710246
10272 20268 51017=




000
SAZS31 NSTU 191659
MTRPPG
METAR NSTU 191656Z 08011KT 12SM SCT018 BKN300 27/25 A2982 RMK SLP100
 T02720250=




000
SAZS31 NSTU 191556
MTRPPG
METAR NSTU 191553Z 08015KT 10SM SCT018 SCT040 27/25 A2980 RMK SLP091
 T02700249=




000
SAZS31 NSTU 191452
MTRPPG
METAR NSTU 191450Z 06012KT 10SM SCT016 SCT040 BKN090 27/25 A2979 RMK
 SLP090 8/870 T02690246 56017=




000
SAZS31 NSTU 191355
MTRPPG
METAR NSTU 191352Z 09011KT 10SM SCT016 SCT040 BKN090 27/26 A2980 RMK
 SLP093 T02690258=




000
SAZS31 NSTU 191355
MTRPPG
METAR NSTU 191352Z 09011KT 10SM SCT016 SCT040 BKN090 27/26 A2980 RMK
 SLP093 T02690258=




000
SAZS31 NSTU 191257
MTRPPG
METAR NSTU 191254Z 08010KT 10SM FEW016 SCT040 BKN100 27/25 A2982 RMK
 SLP098 T02690249=




000
SAZS31 NSTU 191200
MTRPPG
METAR NSTU 191050Z 10015KT 10SM SCT016 BKN040 27/25 A2988 RMK
SHRAE14 SLP119 T02730254 403170272=




000
SAZS31 NSTU 191159
MTRPPG
METAR NSTU 191152Z 09011KT 10SM FEW016 SCT040 BKN100 27/25 A2985 RMK
 SHRAB01E31 SLP107 60006 70047 8/870 T02680250 10273 20268 56017=




000
SAZS31 NSTU 191001
MTRPPG
METAR NSTU 190955Z 09010KT 8SM -SHRA SCT016 BKN040 27/25 A2989 RMK
SLP122 T02710252=




000
SAZS31 NSTU 191001
MTRPPG
METAR NSTU 190955Z 09010KT 8SM -SHRA SCT016 BKN040 27/25 A2989 RMK
SLP122 T02710252=




000
SAZS31 NSTU 190903
MTRPPG
METAR NSTU 190855Z 09012KT 10SM -SHRA BKN016 BKN040 27/25 A2989 RMK
SLP124 60002 8/800 T02680252 51012=




000
SAZS31 NSTU 190757
MTRPPG
METAR NSTU 190754Z 10009KT 10SM BKN016 BKN040 27/25 A2989 RMK SLP122
T02730253=




000
SAZS31 NSTU 190657
MTRPPG
METAR NSTU 190653Z 09011KT 10SM BKN016 BKN040 27/25 A2987 RMK SLP117
T02710247=




000
SAZS31 NSTU 190604
MTRPPG
METAR NSTU 190550Z 12010KT 10SM -SHRA BKN013TCU OVC040 27/26 A2986
RMK TCU ALQDS SLP112 60036 8/2// T02720257 10309 20272 51014=




000
SAZS31 NSTU 190456
MTRPPG
METAR NSTU 190450Z 04006KT 10SM -SHRA BKN013TCU OVC040 27/25 A2983
RMK TCU ALQDS SLP103 T02730254=




000
SAZS31 NSTU 190414
MTRPPG
METAR NSTU 190351Z 10008KT 12SM SCT016TCU SCT100 30/26 A2982 RMK TCU
ALQDS SLP100 T02960257=




000
SAZS31 NSTU 190300
MTRPPG
METAR NSTU 190251Z 10012KT 12SM FEW020 SCT240 30/26 A2982 RMK SLP098
 8/101 T02980257 56014=





000
SAZS31 NSTU 190200
MTRPPG
METAR NSTU 190151Z 10012KT 12SM SCT017 BKN240 31/26 A2983 RMK SLP102
 T03090259=





000
SAZS31 NSTU 190100
MTRPPG
METAR NSTU 190056Z 09011KT 12SM SCT020 BKN240 31/26 A2983 RMK SLP103
 T03090260=





000
SAZS31 NSTU 190000
MTRPPG
METAR NSTU 182350Z 09014KT 12SM FEW020 SCT240 31/26 A2986 RMK SLP112
 8/101 T03090256 10317 20278 56017=





000
SAZS31 NSTU 182252
MTRPPG
METAR NSTU 182250Z 09011KT 12SM SCT018 BKN240 32/26 A2988 RMK SLP119
 T03170264=




000
SAZS31 NSTU 182154
MTRPPG
METAR NSTU 182150Z 10014KT 12SM FEW019 SCT240 31/26 A2989 RMK SLP124
 T03100259=




000
SAZS31 NSTU 182154
MTRPPG
METAR NSTU 182150Z 10014KT 12SM FEW019 SCT240 31/26 A2989 RMK SLP124
 T03100259=




000
SAZS31 NSTU 182055
MTRPPG
METAR NSTU 182050Z 10016KT 12SM SCT019 SCT240 31/26 A2991 RMK SLP129
 8/101 T03070257 52003=




000
SAZS31 NSTU 182003
MTRPPG
METAR NSTU 181959Z 10013KT 12SM SCT019 SCT040 30/26 A2991 RMK SLP130
 T03040264=




    US Dept of Commerce
    National Oceanic and Atmospheric Administration
    National Weather Service
    1325 East West Highway
    Silver Spring, MD 20910
    Page Author: NWS Internet Services Team
Disclaimer
Information Quality
Credits
Glossary
Privacy Policy
Freedom of Information Act (FOIA)
About Us
Career Opportunities